sensor_id;sensor_type;location;lat;lon;timestamp;P1;durP1;ratioP1;P2;durP2;ratioP2
64791;SDS011;51226;47.504;19.074;2023-03-14T00:00:59;10.68;;;8.00;;
64791;SDS011;51226;47.504;19.074;2023-03-14T00:04:03;10.10;;;7.65;;
64791;SDS011;51226;47.504;19.074;2023-03-14T00:07:07;10.48;;;8.38;;
64791;SDS011;51226;47.504;19.074;2023-03-14T00:10:11;9.18;;;7.57;;
64791;SDS011;51226;47.504;19.074;2023-03-14T00:13:18;11.80;;;8.13;;
64791;SDS011;51226;47.504;19.074;2023-03-14T00:16:25;11.60;;;7.97;;
64791;SDS011;51226;47.504;19.074;2023-03-14T00:19:28;11.52;;;8.00;;
64791;SDS011;51226;47.504;19.074;2023-03-14T00:22:31;13.57;;;8.20;;
64791;SDS011;51226;47.504;19.074;2023-03-14T00:25:34;12.93;;;8.45;;
64791;SDS011;51226;47.504;19.074;2023-03-14T00:28:37;10.93;;;8.88;;
64791;SDS011;51226;47.504;19.074;2023-03-14T00:31:41;10.77;;;8.27;;
64791;SDS011;51226;47.504;19.074;2023-03-14T00:34:44;9.45;;;8.15;;
64791;SDS011;51226;47.504;19.074;2023-03-14T00:37:47;11.12;;;8.40;;
64791;SDS011;51226;47.504;19.074;2023-03-14T00:40:50;11.57;;;8.07;;
64791;SDS011;51226;47.504;19.074;2023-03-14T00:43:56;11.38;;;8.98;;
64791;SDS011;51226;47.504;19.074;2023-03-14T00:46:59;11.95;;;8.95;;
64791;SDS011;51226;47.504;19.074;2023-03-14T00:50:02;11.77;;;8.68;;
64791;SDS011;51226;47.504;19.074;2023-03-14T00:53:05;12.07;;;7.93;;
64791;SDS011;51226;47.504;19.074;2023-03-14T00:56:09;12.02;;;7.97;;
64791;SDS011;51226;47.504;19.074;2023-03-14T00:59:15;10.70;;;8.10;;
64791;SDS011;51226;47.504;19.074;2023-03-14T01:02:19;11.57;;;8.40;;
64791;SDS011;51226;47.504;19.074;2023-03-14T01:05:23;12.82;;;8.98;;
64791;SDS011;51226;47.504;19.074;2023-03-14T01:08:26;11.00;;;8.60;;
64791;SDS011;51226;47.504;19.074;2023-03-14T01:11:32;11.38;;;8.80;;
64791;SDS011;51226;47.504;19.074;2023-03-14T01:14:37;12.05;;;8.63;;
64791;SDS011;51226;47.504;19.074;2023-03-14T01:17:40;11.40;;;9.13;;
64791;SDS011;51226;47.504;19.074;2023-03-14T01:23:46;12.07;;;9.10;;
64791;SDS011;51226;47.504;19.074;2023-03-14T01:26:50;10.90;;;8.77;;
64791;SDS011;51226;47.504;19.074;2023-03-14T01:29:53;13.57;;;9.25;;
64791;SDS011;51226;47.504;19.074;2023-03-14T01:32:55;11.68;;;8.95;;
64791;SDS011;51226;47.504;19.074;2023-03-14T01:35:59;12.75;;;9.00;;
64791;SDS011;51226;47.504;19.074;2023-03-14T01:39:04;11.82;;;9.02;;
64791;SDS011;51226;47.504;19.074;2023-03-14T01:42:09;13.57;;;9.85;;
64791;SDS011;51226;47.504;19.074;2023-03-14T01:49:01;10.75;;;8.90;;
64791;SDS011;51226;47.504;19.074;2023-03-14T01:55:19;11.65;;;9.25;;
64791;SDS011;51226;47.504;19.074;2023-03-14T01:58:26;12.37;;;8.98;;
64791;SDS011;51226;47.504;19.074;2023-03-14T02:01:31;14.43;;;9.98;;
64791;SDS011;51226;47.504;19.074;2023-03-14T02:07:48;13.10;;;10.27;;
64791;SDS011;51226;47.504;19.074;2023-03-14T02:10:54;15.38;;;10.25;;
64791;SDS011;51226;47.504;19.074;2023-03-14T02:13:58;13.38;;;9.88;;
64791;SDS011;51226;47.504;19.074;2023-03-14T02:17:03;11.48;;;9.52;;
64791;SDS011;51226;47.504;19.074;2023-03-14T02:23:12;11.93;;;8.93;;
64791;SDS011;51226;47.504;19.074;2023-03-14T02:26:22;13.02;;;9.23;;
64791;SDS011;51226;47.504;19.074;2023-03-14T02:29:35;10.90;;;9.63;;
64791;SDS011;51226;47.504;19.074;2023-03-14T02:32:43;12.88;;;9.60;;
64791;SDS011;51226;47.504;19.074;2023-03-14T02:35:51;11.93;;;8.82;;
64791;SDS011;51226;47.504;19.074;2023-03-14T02:39:05;12.73;;;10.30;;
64791;SDS011;51226;47.504;19.074;2023-03-14T02:42:15;13.60;;;10.57;;
64791;SDS011;51226;47.504;19.074;2023-03-14T02:48:30;11.70;;;9.93;;
64791;SDS011;51226;47.504;19.074;2023-03-14T02:51:36;12.30;;;9.93;;
64791;SDS011;51226;47.504;19.074;2023-03-14T02:54:40;12.32;;;9.18;;
64791;SDS011;51226;47.504;19.074;2023-03-14T02:57:43;13.60;;;9.70;;
64791;SDS011;51226;47.504;19.074;2023-03-14T03:00:47;11.70;;;9.27;;
64791;SDS011;51226;47.504;19.074;2023-03-14T03:03:51;14.13;;;9.73;;
64791;SDS011;51226;47.504;19.074;2023-03-14T03:06:55;15.68;;;10.68;;
64791;SDS011;51226;47.504;19.074;2023-03-14T03:09:58;10.63;;;9.52;;
64791;SDS011;51226;47.504;19.074;2023-03-14T03:13:01;14.18;;;9.57;;
64791;SDS011;51226;47.504;19.074;2023-03-14T03:16:04;14.05;;;10.02;;
64791;SDS011;51226;47.504;19.074;2023-03-14T03:19:09;13.20;;;9.38;;
64791;SDS011;51226;47.504;19.074;2023-03-14T03:22:11;14.23;;;10.17;;
64791;SDS011;51226;47.504;19.074;2023-03-14T03:25:15;16.62;;;10.40;;
64791;SDS011;51226;47.504;19.074;2023-03-14T03:28:19;15.15;;;10.13;;
64791;SDS011;51226;47.504;19.074;2023-03-14T03:34:27;13.30;;;9.53;;
64791;SDS011;51226;47.504;19.074;2023-03-14T03:37:31;10.23;;;8.95;;
64791;SDS011;51226;47.504;19.074;2023-03-14T03:40:34;11.40;;;9.40;;
64791;SDS011;51226;47.504;19.074;2023-03-14T03:43:37;14.32;;;8.93;;
64791;SDS011;51226;47.504;19.074;2023-03-14T03:46:40;10.93;;;9.18;;
64791;SDS011;51226;47.504;19.074;2023-03-14T03:49:44;12.73;;;9.45;;
64791;SDS011;51226;47.504;19.074;2023-03-14T03:52:46;13.55;;;9.70;;
64791;SDS011;51226;47.504;19.074;2023-03-14T03:55:50;14.43;;;9.93;;
64791;SDS011;51226;47.504;19.074;2023-03-14T03:58:52;12.30;;;9.45;;
64791;SDS011;51226;47.504;19.074;2023-03-14T04:01:55;12.68;;;9.70;;
64791;SDS011;51226;47.504;19.074;2023-03-14T04:04:58;12.57;;;10.27;;
64791;SDS011;51226;47.504;19.074;2023-03-14T04:08:02;14.13;;;10.35;;
64791;SDS011;51226;47.504;19.074;2023-03-14T04:14:08;12.30;;;9.50;;
64791;SDS011;51226;47.504;19.074;2023-03-14T04:17:13;13.65;;;10.00;;
64791;SDS011;51226;47.504;19.074;2023-03-14T04:20:16;12.93;;;8.77;;
64791;SDS011;51226;47.504;19.074;2023-03-14T04:23:19;11.43;;;9.75;;
64791;SDS011;51226;47.504;19.074;2023-03-14T04:26:24;12.00;;;9.02;;
64791;SDS011;51226;47.504;19.074;2023-03-14T04:29:27;14.65;;;10.23;;
64791;SDS011;51226;47.504;19.074;2023-03-14T04:32:30;11.02;;;8.25;;
64791;SDS011;51226;47.504;19.074;2023-03-14T04:35:34;11.77;;;9.63;;
64791;SDS011;51226;47.504;19.074;2023-03-14T04:38:38;13.52;;;9.45;;
64791;SDS011;51226;47.504;19.074;2023-03-14T04:41:42;11.60;;;9.52;;
64791;SDS011;51226;47.504;19.074;2023-03-14T04:44:47;12.32;;;9.75;;
64791;SDS011;51226;47.504;19.074;2023-03-14T04:47:52;12.10;;;9.38;;
64791;SDS011;51226;47.504;19.074;2023-03-14T04:50:55;12.57;;;9.30;;
64791;SDS011;51226;47.504;19.074;2023-03-14T04:53:59;11.12;;;8.73;;
64791;SDS011;51226;47.504;19.074;2023-03-14T04:57:02;12.13;;;9.02;;
64791;SDS011;51226;47.504;19.074;2023-03-14T05:00:06;12.30;;;9.50;;
64791;SDS011;51226;47.504;19.074;2023-03-14T05:03:11;15.05;;;10.05;;
64791;SDS011;51226;47.504;19.074;2023-03-14T05:06:17;13.00;;;9.75;;
64791;SDS011;51226;47.504;19.074;2023-03-14T05:09:20;13.05;;;9.27;;
64791;SDS011;51226;47.504;19.074;2023-03-14T05:12:23;15.15;;;9.20;;
64791;SDS011;51226;47.504;19.074;2023-03-14T05:15:27;12.35;;;9.88;;
64791;SDS011;51226;47.504;19.074;2023-03-14T05:18:30;12.40;;;9.07;;
64791;SDS011;51226;47.504;19.074;2023-03-14T05:21:33;17.10;;;9.77;;
64791;SDS011;51226;47.504;19.074;2023-03-14T05:24:37;13.27;;;9.60;;
64791;SDS011;51226;47.504;19.074;2023-03-14T05:27:40;15.23;;;9.20;;
64791;SDS011;51226;47.504;19.074;2023-03-14T05:30:43;14.10;;;9.18;;
64791;SDS011;51226;47.504;19.074;2023-03-14T05:33:46;15.63;;;10.27;;
64791;SDS011;51226;47.504;19.074;2023-03-14T05:36:49;12.80;;;10.05;;
64791;SDS011;51226;47.504;19.074;2023-03-14T05:39:52;13.70;;;9.50;;
64791;SDS011;51226;47.504;19.074;2023-03-14T05:42:56;12.18;;;8.80;;
64791;SDS011;51226;47.504;19.074;2023-03-14T05:46:00;15.02;;;9.38;;
64791;SDS011;51226;47.504;19.074;2023-03-14T05:49:03;13.55;;;9.73;;
64791;SDS011;51226;47.504;19.074;2023-03-14T05:52:07;12.57;;;9.20;;
64791;SDS011;51226;47.504;19.074;2023-03-14T05:55:10;11.77;;;8.93;;
64791;SDS011;51226;47.504;19.074;2023-03-14T05:58:13;14.40;;;8.98;;
64791;SDS011;51226;47.504;19.074;2023-03-14T06:01:16;12.15;;;9.18;;
64791;SDS011;51226;47.504;19.074;2023-03-14T06:04:20;9.98;;;8.45;;
64791;SDS011;51226;47.504;19.074;2023-03-14T06:07:24;12.50;;;8.45;;
64791;SDS011;51226;47.504;19.074;2023-03-14T06:10:27;12.25;;;8.43;;
64791;SDS011;51226;47.504;19.074;2023-03-14T06:13:30;12.52;;;8.50;;
64791;SDS011;51226;47.504;19.074;2023-03-14T06:16:34;13.35;;;8.32;;
64791;SDS011;51226;47.504;19.074;2023-03-14T06:19:37;10.52;;;8.15;;
64791;SDS011;51226;47.504;19.074;2023-03-14T06:22:41;11.05;;;8.13;;
64791;SDS011;51226;47.504;19.074;2023-03-14T06:25:45;11.48;;;8.13;;
64791;SDS011;51226;47.504;19.074;2023-03-14T06:31:50;13.10;;;8.75;;
64791;SDS011;51226;47.504;19.074;2023-03-14T06:37:56;14.38;;;10.15;;
64791;SDS011;51226;47.504;19.074;2023-03-14T06:41:03;14.32;;;9.07;;
64791;SDS011;51226;47.504;19.074;2023-03-14T06:44:07;14.10;;;8.95;;
64791;SDS011;51226;47.504;19.074;2023-03-14T06:47:10;12.88;;;8.93;;
64791;SDS011;51226;47.504;19.074;2023-03-14T06:50:14;12.48;;;8.50;;
64791;SDS011;51226;47.504;19.074;2023-03-14T06:56:20;14.83;;;10.50;;
64791;SDS011;51226;47.504;19.074;2023-03-14T06:59:24;9.98;;;8.20;;
64791;SDS011;51226;47.504;19.074;2023-03-14T07:02:26;13.88;;;8.40;;
64791;SDS011;51226;47.504;19.074;2023-03-14T07:05:47;13.27;;;9.20;;
64791;SDS011;51226;47.504;19.074;2023-03-14T07:11:53;15.20;;;9.05;;
64791;SDS011;51226;47.504;19.074;2023-03-14T07:14:57;12.73;;;8.75;;
64791;SDS011;51226;47.504;19.074;2023-03-14T07:18:13;14.52;;;9.57;;
64791;SDS011;51226;47.504;19.074;2023-03-14T07:21:16;14.20;;;8.47;;
64791;SDS011;51226;47.504;19.074;2023-03-14T07:27:22;14.20;;;9.18;;
64791;SDS011;51226;47.504;19.074;2023-03-14T07:33:28;12.93;;;9.45;;
64791;SDS011;51226;47.504;19.074;2023-03-14T07:39:34;18.20;;;9.13;;
64791;SDS011;51226;47.504;19.074;2023-03-14T07:42:38;15.60;;;10.10;;
64791;SDS011;51226;47.504;19.074;2023-03-14T07:45:45;13.52;;;9.15;;
64791;SDS011;51226;47.504;19.074;2023-03-14T07:48:52;14.77;;;9.65;;
64791;SDS011;51226;47.504;19.074;2023-03-14T07:51:55;16.98;;;9.85;;
64791;SDS011;51226;47.504;19.074;2023-03-14T07:54:59;14.93;;;8.85;;
64791;SDS011;51226;47.504;19.074;2023-03-14T07:58:01;13.80;;;8.93;;
64791;SDS011;51226;47.504;19.074;2023-03-14T08:01:04;12.48;;;9.63;;
64791;SDS011;51226;47.504;19.074;2023-03-14T08:04:08;12.37;;;9.55;;
64791;SDS011;51226;47.504;19.074;2023-03-14T08:07:11;13.00;;;9.68;;
64791;SDS011;51226;47.504;19.074;2023-03-14T08:10:14;13.95;;;9.95;;
64791;SDS011;51226;47.504;19.074;2023-03-14T08:13:24;15.90;;;9.45;;
64791;SDS011;51226;47.504;19.074;2023-03-14T08:16:28;14.85;;;9.05;;
64791;SDS011;51226;47.504;19.074;2023-03-14T08:19:31;12.82;;;9.38;;
64791;SDS011;51226;47.504;19.074;2023-03-14T08:22:33;13.20;;;9.40;;
64791;SDS011;51226;47.504;19.074;2023-03-14T08:25:37;14.00;;;8.68;;
64791;SDS011;51226;47.504;19.074;2023-03-14T08:28:40;12.85;;;9.27;;
64791;SDS011;51226;47.504;19.074;2023-03-14T08:31:43;11.00;;;8.55;;
64791;SDS011;51226;47.504;19.074;2023-03-14T08:34:47;13.02;;;9.73;;
64791;SDS011;51226;47.504;19.074;2023-03-14T08:37:51;15.88;;;9.00;;
64791;SDS011;51226;47.504;19.074;2023-03-14T08:40:55;15.10;;;9.07;;
64791;SDS011;51226;47.504;19.074;2023-03-14T08:43:59;13.07;;;7.97;;
64791;SDS011;51226;47.504;19.074;2023-03-14T08:50:06;11.82;;;7.82;;
64791;SDS011;51226;47.504;19.074;2023-03-14T08:53:10;14.20;;;7.35;;
64791;SDS011;51226;47.504;19.074;2023-03-14T08:56:13;9.82;;;7.37;;
64791;SDS011;51226;47.504;19.074;2023-03-14T08:59:16;9.07;;;6.50;;
64791;SDS011;51226;47.504;19.074;2023-03-14T09:02:19;11.43;;;6.05;;
64791;SDS011;51226;47.504;19.074;2023-03-14T09:05:22;10.18;;;6.22;;
64791;SDS011;51226;47.504;19.074;2023-03-14T09:08:26;11.20;;;6.20;;
64791;SDS011;51226;47.504;19.074;2023-03-14T09:11:29;9.30;;;5.97;;
64791;SDS011;51226;47.504;19.074;2023-03-14T09:14:32;8.02;;;5.87;;
64791;SDS011;51226;47.504;19.074;2023-03-14T09:20:37;11.97;;;5.63;;
64791;SDS011;51226;47.504;19.074;2023-03-14T09:23:42;8.48;;;5.80;;
64791;SDS011;51226;47.504;19.074;2023-03-14T09:26:47;7.15;;;5.53;;
64791;SDS011;51226;47.504;19.074;2023-03-14T09:32:53;12.07;;;5.82;;
64791;SDS011;51226;47.504;19.074;2023-03-14T09:35:58;8.82;;;5.85;;
64791;SDS011;51226;47.504;19.074;2023-03-14T09:39:02;7.70;;;5.43;;
64791;SDS011;51226;47.504;19.074;2023-03-14T09:42:07;9.25;;;5.70;;
64791;SDS011;51226;47.504;19.074;2023-03-14T09:45:17;8.25;;;6.15;;
64791;SDS011;51226;47.504;19.074;2023-03-14T09:48:29;11.35;;;6.20;;
64791;SDS011;51226;47.504;19.074;2023-03-14T09:51:34;9.00;;;5.78;;
64791;SDS011;51226;47.504;19.074;2023-03-14T09:58:09;6.85;;;5.95;;
64791;SDS011;51226;47.504;19.074;2023-03-14T10:01:16;10.32;;;5.87;;
64791;SDS011;51226;47.504;19.074;2023-03-14T10:04:27;9.40;;;5.50;;
64791;SDS011;51226;47.504;19.074;2023-03-14T10:07:32;7.72;;;5.07;;
64791;SDS011;51226;47.504;19.074;2023-03-14T10:10:36;8.07;;;5.32;;
64791;SDS011;51226;47.504;19.074;2023-03-14T10:13:46;6.10;;;5.50;;
64791;SDS011;51226;47.504;19.074;2023-03-14T10:16:51;10.45;;;6.35;;
64791;SDS011;51226;47.504;19.074;2023-03-14T10:19:58;12.32;;;5.10;;
64791;SDS011;51226;47.504;19.074;2023-03-14T10:26:17;11.27;;;5.55;;
64791;SDS011;51226;47.504;19.074;2023-03-14T10:29:21;11.27;;;6.05;;
64791;SDS011;51226;47.504;19.074;2023-03-14T10:35:58;3.35;;;2.03;;
64791;SDS011;51226;47.504;19.074;2023-03-14T10:42:28;7.37;;;2.20;;
64791;SDS011;51226;47.504;19.074;2023-03-14T10:45:35;7.00;;;1.83;;
64791;SDS011;51226;47.504;19.074;2023-03-14T10:48:41;2.78;;;1.85;;
64791;SDS011;51226;47.504;19.074;2023-03-14T10:51:45;5.03;;;2.40;;
64791;SDS011;51226;47.504;19.074;2023-03-14T10:57:59;2.55;;;1.80;;
64791;SDS011;51226;47.504;19.074;2023-03-14T11:01:18;6.95;;;2.20;;
64791;SDS011;51226;47.504;19.074;2023-03-14T11:04:41;5.80;;;2.08;;
64791;SDS011;51226;47.504;19.074;2023-03-14T11:11:31;4.53;;;1.83;;
64791;SDS011;51226;47.504;19.074;2023-03-14T11:14:36;3.62;;;1.80;;
64791;SDS011;51226;47.504;19.074;2023-03-14T11:27:36;4.05;;;1.90;;
64791;SDS011;51226;47.504;19.074;2023-03-14T11:30:46;2.78;;;1.62;;
64791;SDS011;51226;47.504;19.074;2023-03-14T11:37:29;2.58;;;1.60;;
64791;SDS011;51226;47.504;19.074;2023-03-14T11:40:35;7.05;;;1.98;;
64791;SDS011;51226;47.504;19.074;2023-03-14T11:43:40;7.25;;;2.10;;
64791;SDS011;51226;47.504;19.074;2023-03-14T11:46:48;4.85;;;1.87;;
64791;SDS011;51226;47.504;19.074;2023-03-14T11:53:14;5.28;;;1.92;;
64791;SDS011;51226;47.504;19.074;2023-03-14T11:56:26;5.55;;;1.75;;
64791;SDS011;51226;47.504;19.074;2023-03-14T12:02:57;2.33;;;1.62;;
64791;SDS011;51226;47.504;19.074;2023-03-14T12:06:17;3.62;;;1.70;;
64791;SDS011;51226;47.504;19.074;2023-03-14T12:09:26;3.20;;;1.92;;
64791;SDS011;51226;47.504;19.074;2023-03-14T12:12:29;2.10;;;1.55;;
64791;SDS011;51226;47.504;19.074;2023-03-14T12:15:34;4.03;;;1.92;;
64791;SDS011;51226;47.504;19.074;2023-03-14T12:18:41;3.72;;;1.50;;
64791;SDS011;51226;47.504;19.074;2023-03-14T12:21:51;3.67;;;1.60;;
64791;SDS011;51226;47.504;19.074;2023-03-14T12:25:04;1.15;;;1.05;;
64791;SDS011;51226;47.504;19.074;2023-03-14T12:28:20;2.55;;;1.60;;
64791;SDS011;51226;47.504;19.074;2023-03-14T12:31:38;4.93;;;1.50;;
64791;SDS011;51226;47.504;19.074;2023-03-14T12:34:44;4.12;;;2.00;;
64791;SDS011;51226;47.504;19.074;2023-03-14T12:37:50;3.50;;;1.75;;
64791;SDS011;51226;47.504;19.074;2023-03-14T12:47:40;2.12;;;1.60;;
64791;SDS011;51226;47.504;19.074;2023-03-14T12:51:00;1.90;;;1.70;;
64791;SDS011;51226;47.504;19.074;2023-03-14T12:58:08;5.43;;;1.70;;
64791;SDS011;51226;47.504;19.074;2023-03-14T13:01:19;3.70;;;2.10;;
64791;SDS011;51226;47.504;19.074;2023-03-14T13:04:27;4.62;;;1.75;;
64791;SDS011;51226;47.504;19.074;2023-03-14T13:10:51;2.08;;;1.80;;
64791;SDS011;51226;47.504;19.074;2023-03-14T13:13:57;3.78;;;2.12;;
64791;SDS011;51226;47.504;19.074;2023-03-14T13:17:01;3.83;;;2.22;;
64791;SDS011;51226;47.504;19.074;2023-03-14T13:24:01;2.45;;;1.80;;
64791;SDS011;51226;47.504;19.074;2023-03-14T13:27:14;3.85;;;2.30;;
64791;SDS011;51226;47.504;19.074;2023-03-14T13:33:29;2.28;;;1.83;;
64791;SDS011;51226;47.504;19.074;2023-03-14T13:36:32;4.93;;;2.12;;
64791;SDS011;51226;47.504;19.074;2023-03-14T13:39:37;4.20;;;2.17;;
64791;SDS011;51226;47.504;19.074;2023-03-14T13:42:42;4.22;;;2.00;;
64791;SDS011;51226;47.504;19.074;2023-03-14T13:48:49;2.58;;;1.73;;
64791;SDS011;51226;47.504;19.074;2023-03-14T13:51:58;3.75;;;1.98;;
64791;SDS011;51226;47.504;19.074;2023-03-14T13:55:01;4.78;;;2.28;;
64791;SDS011;51226;47.504;19.074;2023-03-14T13:58:11;3.65;;;2.30;;
64791;SDS011;51226;47.504;19.074;2023-03-14T14:04:35;2.73;;;2.43;;
64791;SDS011;51226;47.504;19.074;2023-03-14T14:07:39;5.20;;;2.62;;
64791;SDS011;51226;47.504;19.074;2023-03-14T14:10:46;4.65;;;2.42;;
64791;SDS011;51226;47.504;19.074;2023-03-14T14:13:51;5.43;;;2.85;;
64791;SDS011;51226;47.504;19.074;2023-03-14T14:16:54;6.90;;;3.58;;
64791;SDS011;51226;47.504;19.074;2023-03-14T14:19:58;4.90;;;2.95;;
64791;SDS011;51226;47.504;19.074;2023-03-14T14:23:04;4.15;;;2.70;;
64791;SDS011;51226;47.504;19.074;2023-03-14T14:26:13;4.87;;;2.62;;
64791;SDS011;51226;47.504;19.074;2023-03-14T14:32:34;7.07;;;2.83;;
64791;SDS011;51226;47.504;19.074;2023-03-14T14:35:41;9.02;;;3.15;;
64791;SDS011;51226;47.504;19.074;2023-03-14T14:38:48;6.87;;;2.90;;
64791;SDS011;51226;47.504;19.074;2023-03-14T14:41:52;6.20;;;2.72;;
64791;SDS011;51226;47.504;19.074;2023-03-14T14:44:55;5.87;;;2.78;;
64791;SDS011;51226;47.504;19.074;2023-03-14T14:51:04;4.25;;;2.55;;
64791;SDS011;51226;47.504;19.074;2023-03-14T14:54:18;12.43;;;4.20;;
64791;SDS011;51226;47.504;19.074;2023-03-14T14:57:23;6.45;;;3.58;;
64791;SDS011;51226;47.504;19.074;2023-03-14T15:00:31;6.07;;;3.12;;
64791;SDS011;51226;47.504;19.074;2023-03-14T15:03:33;11.05;;;4.53;;
64791;SDS011;51226;47.504;19.074;2023-03-14T15:06:37;6.05;;;4.07;;
64791;SDS011;51226;47.504;19.074;2023-03-14T15:12:44;6.95;;;4.53;;
64791;SDS011;51226;47.504;19.074;2023-03-14T15:15:48;11.35;;;4.90;;
64791;SDS011;51226;47.504;19.074;2023-03-14T15:19:00;9.02;;;5.10;;
64791;SDS011;51226;47.504;19.074;2023-03-14T15:22:24;11.32;;;4.37;;
64791;SDS011;51226;47.504;19.074;2023-03-14T15:25:28;5.60;;;4.10;;
64791;SDS011;51226;47.504;19.074;2023-03-14T15:28:51;9.55;;;4.82;;
64791;SDS011;51226;47.504;19.074;2023-03-14T15:31:54;10.02;;;5.03;;
64791;SDS011;51226;47.504;19.074;2023-03-14T15:34:57;7.47;;;4.95;;
64791;SDS011;51226;47.504;19.074;2023-03-14T15:41:02;7.32;;;4.55;;
64791;SDS011;51226;47.504;19.074;2023-03-14T15:44:05;9.23;;;4.30;;
64791;SDS011;51226;47.504;19.074;2023-03-14T15:47:09;6.68;;;4.53;;
64791;SDS011;51226;47.504;19.074;2023-03-14T15:50:13;8.43;;;5.07;;
64791;SDS011;51226;47.504;19.074;2023-03-14T15:53:16;5.65;;;4.45;;
64791;SDS011;51226;47.504;19.074;2023-03-14T15:56:20;5.03;;;3.20;;
64791;SDS011;51226;47.504;19.074;2023-03-14T15:59:23;3.65;;;2.20;;
64791;SDS011;51226;47.504;19.074;2023-03-14T16:02:27;2.03;;;1.80;;
64791;SDS011;51226;47.504;19.074;2023-03-14T16:05:30;4.12;;;2.40;;
64791;SDS011;51226;47.504;19.074;2023-03-14T16:08:33;3.92;;;2.00;;
64791;SDS011;51226;47.504;19.074;2023-03-14T16:11:36;4.75;;;1.65;;
64791;SDS011;51226;47.504;19.074;2023-03-14T16:14:39;4.72;;;2.20;;
64791;SDS011;51226;47.504;19.074;2023-03-14T16:17:45;2.62;;;2.00;;
64791;SDS011;51226;47.504;19.074;2023-03-14T16:20:51;5.70;;;3.62;;
64791;SDS011;51226;47.504;19.074;2023-03-14T16:23:55;11.57;;;7.07;;
64791;SDS011;51226;47.504;19.074;2023-03-14T16:26:58;4.53;;;2.55;;
64791;SDS011;51226;47.504;19.074;2023-03-14T16:30:01;3.95;;;2.60;;
64791;SDS011;51226;47.504;19.074;2023-03-14T16:33:04;4.87;;;2.30;;
64791;SDS011;51226;47.504;19.074;2023-03-14T16:36:14;2.42;;;2.05;;
64791;SDS011;51226;47.504;19.074;2023-03-14T16:39:17;4.28;;;2.10;;
64791;SDS011;51226;47.504;19.074;2023-03-14T16:42:21;3.25;;;2.60;;
64791;SDS011;51226;47.504;19.074;2023-03-14T16:45:25;2.92;;;2.17;;
64791;SDS011;51226;47.504;19.074;2023-03-14T16:48:28;2.67;;;2.20;;
64791;SDS011;51226;47.504;19.074;2023-03-14T16:51:31;2.80;;;2.15;;
64791;SDS011;51226;47.504;19.074;2023-03-14T16:57:37;3.90;;;2.45;;
64791;SDS011;51226;47.504;19.074;2023-03-14T17:00:40;4.68;;;2.03;;
64791;SDS011;51226;47.504;19.074;2023-03-14T17:03:44;3.72;;;1.80;;
64791;SDS011;51226;47.504;19.074;2023-03-14T17:06:48;2.37;;;1.73;;
64791;SDS011;51226;47.504;19.074;2023-03-14T17:09:51;3.72;;;2.35;;
64791;SDS011;51226;47.504;19.074;2023-03-14T17:12:56;4.50;;;2.03;;
64791;SDS011;51226;47.504;19.074;2023-03-14T17:15:59;2.53;;;1.80;;
64791;SDS011;51226;47.504;19.074;2023-03-14T17:19:03;4.82;;;1.85;;
64791;SDS011;51226;47.504;19.074;2023-03-14T17:22:09;3.12;;;1.95;;
64791;SDS011;51226;47.504;19.074;2023-03-14T17:25:25;2.53;;;1.80;;
64791;SDS011;51226;47.504;19.074;2023-03-14T17:28:28;6.03;;;2.12;;
64791;SDS011;51226;47.504;19.074;2023-03-14T17:34:34;2.22;;;1.83;;
64791;SDS011;51226;47.504;19.074;2023-03-14T17:37:37;1.83;;;1.62;;
64791;SDS011;51226;47.504;19.074;2023-03-14T17:40:39;2.12;;;1.92;;
64791;SDS011;51226;47.504;19.074;2023-03-14T17:43:42;2.83;;;1.90;;
64791;SDS011;51226;47.504;19.074;2023-03-14T17:46:47;4.15;;;1.95;;
64791;SDS011;51226;47.504;19.074;2023-03-14T17:49:50;2.97;;;2.10;;
64791;SDS011;51226;47.504;19.074;2023-03-14T17:52:53;3.42;;;2.08;;
64791;SDS011;51226;47.504;19.074;2023-03-14T17:55:56;3.35;;;2.03;;
64791;SDS011;51226;47.504;19.074;2023-03-14T17:58:59;1.90;;;1.70;;
64791;SDS011;51226;47.504;19.074;2023-03-14T18:02:03;2.53;;;1.77;;
64791;SDS011;51226;47.504;19.074;2023-03-14T18:05:07;3.92;;;2.30;;
64791;SDS011;51226;47.504;19.074;2023-03-14T18:08:11;1.87;;;1.75;;
64791;SDS011;51226;47.504;19.074;2023-03-14T18:11:16;4.68;;;2.22;;
64791;SDS011;51226;47.504;19.074;2023-03-14T18:14:18;2.53;;;1.80;;
64791;SDS011;51226;47.504;19.074;2023-03-14T18:17:22;2.78;;;2.00;;
64791;SDS011;51226;47.504;19.074;2023-03-14T18:20:24;4.00;;;1.80;;
64791;SDS011;51226;47.504;19.074;2023-03-14T18:23:28;2.67;;;2.05;;
64791;SDS011;51226;47.504;19.074;2023-03-14T18:26:30;2.97;;;1.85;;
64791;SDS011;51226;47.504;19.074;2023-03-14T18:29:34;2.40;;;2.10;;
64791;SDS011;51226;47.504;19.074;2023-03-14T18:32:38;3.03;;;1.85;;
64791;SDS011;51226;47.504;19.074;2023-03-14T18:35:41;3.15;;;2.00;;
64791;SDS011;51226;47.504;19.074;2023-03-14T18:38:43;3.15;;;2.03;;
64791;SDS011;51226;47.504;19.074;2023-03-14T18:41:48;4.87;;;2.75;;
64791;SDS011;51226;47.504;19.074;2023-03-14T18:44:50;4.28;;;2.45;;
64791;SDS011;51226;47.504;19.074;2023-03-14T18:50:56;2.78;;;2.08;;
64791;SDS011;51226;47.504;19.074;2023-03-14T18:54:00;4.32;;;2.12;;
64791;SDS011;51226;47.504;19.074;2023-03-14T18:57:12;2.97;;;2.08;;
64791;SDS011;51226;47.504;19.074;2023-03-14T19:00:16;3.65;;;2.03;;
64791;SDS011;51226;47.504;19.074;2023-03-14T19:03:20;2.37;;;1.92;;
64791;SDS011;51226;47.504;19.074;2023-03-14T19:06:24;2.62;;;1.90;;
64791;SDS011;51226;47.504;19.074;2023-03-14T19:09:29;2.08;;;1.48;;
64791;SDS011;51226;47.504;19.074;2023-03-14T19:12:32;3.25;;;2.15;;
64791;SDS011;51226;47.504;19.074;2023-03-14T19:15:34;3.42;;;1.95;;
64791;SDS011;51226;47.504;19.074;2023-03-14T19:18:37;4.05;;;2.50;;
64791;SDS011;51226;47.504;19.074;2023-03-14T19:21:40;2.75;;;2.25;;
64791;SDS011;51226;47.504;19.074;2023-03-14T19:24:44;3.62;;;2.17;;
64791;SDS011;51226;47.504;19.074;2023-03-14T19:27:46;4.57;;;2.60;;
64791;SDS011;51226;47.504;19.074;2023-03-14T19:30:50;5.30;;;2.28;;
64791;SDS011;51226;47.504;19.074;2023-03-14T19:36:56;2.93;;;2.23;;
64791;SDS011;51226;47.504;19.074;2023-03-14T19:39:58;2.85;;;2.10;;
64791;SDS011;51226;47.504;19.074;2023-03-14T19:43:02;3.62;;;2.08;;
64791;SDS011;51226;47.504;19.074;2023-03-14T19:49:08;3.43;;;2.53;;
64791;SDS011;51226;47.504;19.074;2023-03-14T19:52:10;4.40;;;2.75;;
64791;SDS011;51226;47.504;19.074;2023-03-14T19:58:16;2.92;;;2.47;;
64791;SDS011;51226;47.504;19.074;2023-03-14T20:07:27;2.70;;;1.70;;
64791;SDS011;51226;47.504;19.074;2023-03-14T20:10:30;3.00;;;1.95;;
64791;SDS011;51226;47.504;19.074;2023-03-14T20:13:34;5.00;;;1.85;;
64791;SDS011;51226;47.504;19.074;2023-03-14T20:16:38;3.45;;;2.30;;
64791;SDS011;51226;47.504;19.074;2023-03-14T20:19:41;4.00;;;1.73;;
64791;SDS011;51226;47.504;19.074;2023-03-14T20:22:44;2.70;;;1.85;;
64791;SDS011;51226;47.504;19.074;2023-03-14T20:25:51;3.30;;;2.28;;
64791;SDS011;51226;47.504;19.074;2023-03-14T20:28:55;3.53;;;2.00;;
64791;SDS011;51226;47.504;19.074;2023-03-14T20:31:59;2.08;;;1.87;;
64791;SDS011;51226;47.504;19.074;2023-03-14T20:35:02;4.05;;;2.33;;
64791;SDS011;51226;47.504;19.074;2023-03-14T20:41:09;3.93;;;1.90;;
64791;SDS011;51226;47.504;19.074;2023-03-14T20:44:14;2.78;;;1.80;;
64791;SDS011;51226;47.504;19.074;2023-03-14T20:47:17;3.20;;;1.70;;
64791;SDS011;51226;47.504;19.074;2023-03-14T20:50:21;2.10;;;1.87;;
64791;SDS011;51226;47.504;19.074;2023-03-14T20:53:24;3.60;;;1.87;;